createdAt,value
2022-08-28T00:01:01.819Z,8.20
2022-08-28T00:03:30.346Z,9.40
2022-08-28T00:05:57.518Z,8.77
2022-08-28T00:08:24.829Z,7.93
2022-08-28T00:10:51.956Z,8.40
2022-08-28T00:13:21.616Z,8.40
2022-08-28T00:15:52.094Z,8.10
2022-08-28T00:18:19.450Z,8.37
2022-08-28T00:20:47.780Z,8.50
2022-08-28T00:23:15.272Z,8.50
2022-08-28T00:25:42.227Z,9.10
2022-08-28T00:28:13.290Z,8.70
2022-08-28T00:30:52.999Z,8.65
2022-08-28T00:33:27.323Z,8.55
2022-08-28T00:35:54.990Z,8.80
2022-08-28T00:38:24.041Z,8.73
2022-08-28T00:40:55.302Z,8.30
2022-08-28T00:43:37.069Z,8.82
2022-08-28T00:46:06.704Z,8.57
2022-08-28T00:48:33.696Z,9.20
2022-08-28T00:51:20.561Z,7.95
2022-08-28T00:53:47.609Z,9.00
2022-08-28T00:56:17.208Z,9.00
2022-08-28T00:58:46.161Z,9.00
2022-08-28T01:01:14.093Z,8.77
2022-08-28T01:03:42.168Z,8.80
2022-08-28T01:06:09.514Z,8.90
2022-08-28T01:08:38.883Z,8.20
2022-08-28T01:11:07.378Z,8.50
2022-08-28T01:13:36.516Z,9.07
2022-08-28T01:16:05.517Z,8.80
2022-08-28T01:18:34.262Z,9.18
2022-08-28T01:21:32.269Z,9.57
2022-08-28T01:24:02.414Z,8.30
2022-08-28T01:26:30.074Z,8.18
2022-08-28T01:28:58.609Z,8.13
2022-08-28T01:31:27.850Z,8.27
2022-08-28T01:33:55.613Z,8.30
2022-08-28T01:36:22.559Z,8.00
2022-08-28T01:38:56.008Z,7.80
2022-08-28T01:41:22.933Z,7.87
2022-08-28T01:43:49.962Z,8.20
2022-08-28T01:46:18.126Z,8.63
2022-08-28T01:48:45.443Z,8.40
2022-08-28T01:51:13.537Z,8.40
2022-08-28T01:53:41.620Z,8.20
2022-08-28T01:56:14.566Z,8.00
2022-08-28T01:58:42.036Z,8.63
2022-08-28T02:01:15.160Z,8.33
2022-08-28T02:03:45.220Z,8.30
2022-08-28T02:06:13.335Z,7.93
2022-08-28T02:08:40.254Z,8.48
2022-08-28T02:11:08.750Z,8.20
2022-08-28T02:13:37.144Z,7.50
2022-08-28T02:16:06.356Z,8.43
2022-08-28T02:18:33.372Z,8.40
2022-08-28T02:21:00.312Z,7.97
2022-08-28T02:23:27.830Z,8.60
2022-08-28T02:25:54.780Z,9.30
2022-08-28T02:28:21.721Z,8.70
2022-08-28T02:30:48.681Z,9.00
2022-08-28T02:33:16.235Z,8.23
2022-08-28T02:35:43.340Z,8.85
2022-08-28T02:38:11.064Z,8.23
2022-08-28T02:40:41.269Z,8.60
2022-08-28T02:43:08.239Z,9.27
2022-08-28T02:45:35.904Z,8.85
2022-08-28T02:48:03.612Z,8.90
2022-08-28T02:50:31.986Z,8.27
2022-08-28T02:52:58.994Z,8.95
2022-08-28T02:55:26.301Z,8.40
2022-08-28T02:57:54.644Z,8.48
2022-08-28T03:00:25.238Z,9.07
2022-08-28T03:02:53.230Z,8.98
2022-08-28T03:05:23.645Z,8.90
2022-08-28T03:07:53.348Z,9.10
2022-08-28T03:10:21.817Z,8.80
2022-08-28T03:12:49.337Z,9.80
2022-08-28T03:15:18.031Z,9.38
2022-08-28T03:17:45.460Z,8.50
2022-08-28T03:20:15.910Z,8.85
2022-08-28T03:23:01.901Z,8.88
2022-08-28T03:25:29.134Z,9.60
2022-08-28T03:27:56.419Z,8.93
2022-08-28T03:30:23.733Z,9.05
2022-08-28T03:32:51.026Z,9.15
2022-08-28T03:35:18.392Z,9.00
2022-08-28T03:37:45.317Z,8.98
2022-08-28T03:40:13.749Z,9.68
2022-08-28T03:42:40.902Z,9.18
2022-08-28T03:45:10.761Z,8.88
2022-08-28T03:47:39.185Z,9.20
2022-08-28T03:50:08.173Z,9.13
2022-08-28T03:52:38.709Z,9.68
2022-08-28T03:55:08.690Z,9.60
2022-08-28T03:57:36.921Z,9.05
2022-08-28T04:00:09.728Z,8.88
2022-08-28T04:02:36.658Z,10.00
2022-08-28T04:05:05.496Z,9.77
2022-08-28T04:07:32.525Z,8.68
2022-08-28T04:09:59.516Z,9.23
2022-08-28T04:12:26.478Z,9.40
2022-08-28T04:14:55.089Z,9.48
2022-08-28T04:17:21.961Z,8.75
2022-08-28T04:19:52.973Z,9.80
2022-08-28T04:22:20.218Z,9.38
2022-08-28T04:24:50.695Z,8.40
2022-08-28T04:27:17.600Z,9.82
2022-08-28T04:29:44.624Z,9.82
2022-08-28T04:32:11.663Z,9.32
2022-08-28T04:34:39.218Z,9.53
2022-08-28T04:37:06.568Z,8.98
2022-08-28T04:39:34.096Z,8.40
2022-08-28T04:42:01.153Z,8.80
2022-08-28T04:44:28.153Z,10.07
2022-08-28T04:46:55.102Z,9.70
2022-08-28T04:49:26.057Z,9.55
2022-08-28T04:51:53.753Z,9.00
2022-08-28T04:54:21.378Z,9.00
2022-08-28T04:56:48.354Z,9.45
2022-08-28T04:59:16.420Z,9.65
2022-08-28T05:01:43.792Z,9.10
2022-08-28T05:04:11.705Z,9.48
2022-08-28T05:06:46.166Z,9.40
2022-08-28T05:09:16.590Z,9.30
2022-08-28T05:11:44.272Z,9.25
2022-08-28T05:14:15.876Z,10.40
2022-08-28T05:16:49.081Z,9.50
2022-08-28T05:19:18.173Z,9.00
2022-08-28T05:21:45.177Z,10.00
2022-08-28T05:24:13.826Z,9.90
2022-08-28T05:26:41.688Z,9.93
2022-08-28T05:29:09.958Z,9.30
2022-08-28T05:31:39.113Z,9.68
2022-08-28T05:34:07.008Z,9.43
2022-08-28T05:36:36.709Z,9.55
2022-08-28T05:39:07.387Z,10.18
2022-08-28T05:41:34.694Z,9.82
2022-08-28T05:44:08.660Z,9.70
2022-08-28T05:46:39.678Z,9.60
2022-08-28T05:49:10.201Z,9.97
2022-08-28T05:51:40.953Z,11.38
2022-08-28T05:54:08.815Z,13.38
2022-08-28T05:56:38.541Z,14.07
2022-08-28T05:59:09.392Z,14.05
2022-08-28T06:01:40.507Z,14.70
2022-08-28T06:04:15.384Z,14.57
2022-08-28T06:06:43.257Z,13.93
2022-08-28T06:09:19.384Z,13.63
2022-08-28T06:11:47.388Z,14.10
2022-08-28T06:14:17.477Z,13.43
2022-08-28T06:16:47.456Z,14.82
2022-08-28T06:19:15.200Z,13.80
2022-08-28T06:21:42.081Z,14.57
2022-08-28T06:24:12.078Z,14.27
2022-08-28T06:26:39.538Z,13.70
2022-08-28T06:29:09.261Z,13.73
2022-08-28T06:31:36.354Z,13.50
2022-08-28T06:34:04.745Z,13.77
2022-08-28T06:36:34.439Z,13.18
2022-08-28T06:39:02.864Z,13.15
2022-08-28T06:41:32.120Z,13.07
2022-08-28T06:43:59.157Z,13.57
2022-08-28T06:46:26.774Z,14.05
2022-08-28T06:48:53.858Z,13.40
2022-08-28T06:51:23.097Z,14.50
2022-08-28T06:53:52.591Z,13.25
2022-08-28T06:56:26.876Z,13.13
2022-08-28T06:58:57.474Z,12.77
2022-08-28T07:01:33.569Z,13.20
2022-08-28T07:04:04.385Z,14.18
2022-08-28T07:06:35.288Z,13.00
2022-08-28T07:09:05.279Z,14.15
2022-08-28T07:11:33.813Z,13.20
2022-08-28T07:14:01.942Z,12.90
2022-08-28T07:16:33.005Z,12.70
2022-08-28T07:19:02.653Z,12.60
2022-08-28T07:21:31.088Z,12.75
2022-08-28T07:23:58.378Z,12.70
2022-08-28T07:26:26.477Z,11.68
2022-08-28T07:28:59.506Z,11.30
2022-08-28T07:31:44.343Z,11.55
2022-08-28T07:34:14.142Z,11.05
2022-08-28T07:36:41.882Z,10.52
2022-08-28T07:39:10.657Z,10.70
2022-08-28T07:41:40.236Z,10.00
2022-08-28T07:44:27.409Z,10.03
2022-08-28T07:46:59.697Z,10.00
2022-08-28T07:49:27.340Z,9.68
2022-08-28T07:51:54.627Z,9.20
2022-08-28T07:54:23.124Z,9.50
2022-08-28T07:56:50.611Z,9.13
2022-08-28T07:59:19.366Z,8.80
2022-08-28T08:01:48.851Z,8.30
2022-08-28T08:04:17.291Z,9.00
2022-08-28T08:06:45.089Z,8.65
2022-08-28T08:09:15.020Z,8.20
2022-08-28T08:11:42.696Z,8.52
2022-08-28T08:14:10.245Z,9.40
2022-08-28T08:16:40.333Z,10.05
2022-08-28T08:19:13.857Z,10.65
2022-08-28T08:21:43.293Z,10.70
2022-08-28T08:24:12.129Z,10.50
2022-08-28T08:27:00.114Z,12.03
2022-08-28T08:29:31.726Z,11.63
2022-08-28T08:32:05.192Z,13.07
2022-08-28T08:34:35.336Z,13.88
2022-08-28T08:37:02.589Z,13.75
2022-08-28T08:39:29.510Z,13.77
2022-08-28T08:42:00.698Z,14.40
2022-08-28T08:44:33.568Z,13.70
2022-08-28T08:47:16.829Z,13.35
2022-08-28T08:49:48.399Z,13.77
2022-08-28T08:52:38.431Z,14.38
2022-08-28T08:55:27.741Z,14.10
2022-08-28T08:58:11.427Z,12.97
2022-08-28T09:00:50.854Z,13.77
2022-08-28T09:03:46.838Z,13.18
2022-08-28T09:06:45.609Z,13.82
2022-08-28T09:09:24.510Z,12.75
2022-08-28T09:11:57.897Z,13.10
2022-08-28T09:14:41.226Z,13.17
2022-08-28T09:17:10.709Z,11.55
2022-08-28T09:19:37.612Z,12.02
2022-08-28T09:22:04.765Z,12.00
2022-08-28T09:24:34.036Z,12.67
2022-08-28T09:27:12.336Z,11.20
2022-08-28T09:29:47.135Z,11.93
2022-08-28T09:32:29.839Z,12.30
2022-08-28T09:35:05.943Z,12.43
2022-08-28T09:37:34.978Z,11.88
2022-08-28T09:40:20.773Z,11.55
2022-08-28T09:43:27.857Z,11.48
2022-08-28T09:46:07.870Z,11.18
2022-08-28T09:48:41.162Z,11.57
2022-08-28T09:51:09.907Z,11.70
2022-08-28T09:53:42.933Z,11.50
2022-08-28T09:56:17.856Z,12.80
2022-08-28T09:58:49.702Z,12.13
2022-08-28T10:01:38.584Z,11.60
2022-08-28T10:04:36.501Z,11.80
2022-08-28T10:07:19.802Z,11.80
2022-08-28T10:09:59.044Z,11.70
2022-08-28T10:12:48.476Z,11.20
2022-08-28T10:15:26.976Z,11.10
2022-08-28T10:18:15.589Z,11.50
2022-08-28T10:21:04.065Z,12.57
2022-08-28T10:23:49.661Z,11.55
2022-08-28T10:26:58.325Z,11.50
2022-08-28T10:29:30.998Z,10.90
2022-08-28T10:32:15.150Z,12.53
2022-08-28T10:35:08.602Z,11.70
2022-08-28T10:37:41.665Z,11.77
2022-08-28T10:40:12.726Z,11.75
2022-08-28T10:42:45.847Z,11.00
2022-08-28T10:45:20.898Z,10.90
2022-08-28T10:48:05.186Z,10.43
2022-08-28T10:50:45.488Z,11.05
2022-08-28T10:53:32.638Z,10.50
2022-08-28T10:56:04.433Z,10.43
2022-08-28T10:58:34.389Z,10.70
2022-08-28T11:01:06.311Z,10.20
2022-08-28T11:03:41.862Z,9.90
2022-08-28T11:06:32.082Z,9.48
2022-08-28T11:09:22.524Z,10.00
2022-08-28T11:11:52.170Z,10.30
2022-08-28T11:14:35.661Z,9.00
2022-08-28T11:17:25.265Z,8.93
2022-08-28T11:20:13.228Z,8.48
2022-08-28T11:22:46.213Z,8.80
2022-08-28T11:25:32.621Z,8.68
2022-08-28T11:28:17.808Z,8.23
2022-08-28T11:30:47.779Z,8.30
2022-08-28T11:33:41.174Z,7.95
2022-08-28T11:36:20.185Z,7.88
2022-08-28T11:38:53.677Z,8.20
2022-08-28T11:41:28.531Z,8.20
2022-08-28T11:44:13.183Z,7.90
2022-08-28T11:47:03.936Z,7.70
2022-08-28T11:49:33.912Z,6.60
2022-08-28T11:52:45.433Z,6.50
2022-08-28T11:55:32.010Z,6.43
2022-08-28T12:00:27.639Z,6.25
2022-08-28T12:03:00.258Z,6.10
2022-08-28T12:05:33.182Z,6.30
2022-08-28T12:08:02.450Z,6.50
2022-08-28T12:10:30.654Z,6.07
2022-08-28T12:13:01.953Z,6.70
2022-08-28T12:15:28.777Z,6.53
2022-08-28T12:18:02.017Z,6.35
2022-08-28T12:20:40.133Z,6.20
2022-08-28T12:23:34.941Z,6.60
2022-08-28T12:26:11.269Z,6.43
2022-08-28T12:28:45.387Z,6.57
2022-08-28T12:32:12.099Z,6.88
2022-08-28T12:34:50.300Z,6.70
2022-08-28T12:37:52.319Z,6.85
2022-08-28T12:40:41.453Z,6.50
2022-08-28T12:43:11.182Z,6.43
2022-08-28T12:45:49.553Z,5.85
2022-08-28T12:48:17.904Z,5.93
2022-08-28T12:50:44.887Z,6.28
2022-08-28T12:53:17.803Z,5.57
2022-08-28T12:55:46.576Z,5.70
2022-08-28T12:58:30.207Z,6.03
2022-08-28T13:01:01.187Z,5.97
2022-08-28T13:03:28.618Z,5.80
2022-08-28T13:06:06.317Z,6.20
2022-08-28T13:08:37.717Z,6.20
2022-08-28T13:11:04.954Z,5.72
2022-08-28T13:13:34.904Z,5.78
2022-08-28T13:16:06.520Z,5.97
2022-08-28T13:18:43.526Z,5.40
2022-08-28T13:21:32.930Z,5.40
2022-08-28T13:24:21.845Z,5.57
2022-08-28T13:26:59.254Z,5.50
2022-08-28T13:29:26.649Z,5.30
2022-08-28T13:31:58.618Z,5.70
2022-08-28T13:34:29.159Z,5.68
2022-08-28T13:37:07.293Z,5.88
2022-08-28T13:39:41.926Z,5.55
2022-08-28T13:42:13.788Z,4.80
2022-08-28T13:44:50.699Z,5.50
2022-08-28T13:47:17.866Z,5.20
2022-08-28T13:49:44.985Z,5.40
2022-08-28T13:52:12.416Z,5.10
2022-08-28T13:54:43.546Z,5.25
2022-08-28T13:57:11.015Z,5.07
2022-08-28T13:59:38.045Z,4.95
2022-08-28T14:02:25.899Z,5.57
2022-08-28T14:04:53.696Z,4.90
2022-08-28T14:07:20.685Z,4.97
2022-08-28T14:09:47.840Z,4.90
2022-08-28T14:12:15.337Z,5.30
2022-08-28T14:14:42.496Z,5.40
2022-08-28T14:17:10.128Z,4.70
2022-08-28T14:19:37.504Z,5.00
2022-08-28T14:22:05.030Z,4.95
2022-08-28T14:24:32.652Z,4.90
2022-08-28T14:26:59.712Z,4.75
2022-08-28T14:29:26.617Z,4.90
2022-08-28T14:31:53.831Z,4.70
2022-08-28T14:34:22.925Z,4.43
2022-08-28T14:36:55.024Z,4.40
2022-08-28T14:39:25.092Z,4.40
2022-08-28T14:41:53.345Z,4.40
2022-08-28T14:44:21.935Z,4.47
2022-08-28T14:46:50.267Z,4.70
2022-08-28T14:49:19.217Z,4.57
2022-08-28T14:51:47.664Z,4.50
2022-08-28T14:54:17.109Z,4.60
2022-08-28T14:56:45.514Z,4.78
2022-08-28T14:59:23.781Z,4.82
2022-08-28T15:01:52.674Z,4.80
2022-08-28T15:04:22.847Z,4.40
2022-08-28T15:06:55.052Z,4.80
2022-08-28T15:09:21.930Z,4.80
2022-08-28T15:11:48.902Z,4.57
2022-08-28T15:14:15.768Z,4.67
2022-08-28T15:16:45.398Z,4.72
2022-08-28T15:19:15.797Z,4.80
2022-08-28T15:21:49.557Z,4.50
2022-08-28T15:24:22.005Z,4.53
2022-08-28T15:26:49.456Z,4.97
2022-08-28T15:29:16.845Z,4.65
2022-08-28T15:31:46.857Z,4.90
2022-08-28T15:34:17.199Z,12.25
2022-08-28T15:36:45.362Z,33.47
2022-08-28T15:39:40.733Z,23.02
2022-08-28T15:42:08.553Z,7.40
2022-08-28T15:44:35.640Z,5.53
2022-08-28T15:47:03.096Z,5.30
2022-08-28T15:49:32.270Z,5.00
2022-08-28T15:52:10.961Z,5.00
2022-08-28T15:54:38.037Z,5.20
2022-08-28T15:57:05.156Z,5.10
2022-08-28T15:59:38.105Z,4.60
2022-08-28T16:02:16.331Z,5.15
2022-08-28T16:04:43.440Z,4.55
2022-08-28T16:07:11.072Z,4.90
2022-08-28T16:09:38.504Z,5.30
2022-08-28T16:12:05.844Z,4.70
2022-08-28T16:14:34.056Z,5.20
2022-08-28T16:17:05.804Z,4.80
2022-08-28T16:19:37.689Z,5.00
2022-08-28T16:22:04.776Z,4.55
2022-08-28T16:24:31.672Z,5.07
2022-08-28T16:26:58.665Z,4.90
2022-08-28T16:29:25.657Z,5.00
2022-08-28T16:31:53.188Z,4.93
2022-08-28T16:34:20.281Z,5.10
2022-08-28T16:36:48.472Z,5.20
2022-08-28T16:39:15.657Z,5.57
2022-08-28T16:41:46.276Z,6.68
2022-08-28T16:44:13.189Z,5.18
2022-08-28T16:46:40.278Z,5.47
2022-08-28T16:49:09.299Z,5.63
2022-08-28T16:51:36.877Z,5.00
2022-08-28T16:54:03.961Z,4.80
2022-08-28T16:56:30.898Z,4.50
2022-08-28T16:58:57.848Z,5.32
2022-08-28T17:01:25.449Z,4.80
2022-08-28T17:03:54.760Z,4.90
2022-08-28T17:06:29.421Z,4.90
2022-08-28T17:08:58.090Z,5.00
2022-08-28T17:11:28.521Z,4.82
2022-08-28T17:13:55.985Z,4.40
2022-08-28T17:16:24.812Z,4.72
2022-08-28T17:18:52.964Z,4.80
2022-08-28T17:21:39.628Z,4.70
2022-08-28T17:24:07.146Z,4.38
2022-08-28T17:26:34.370Z,5.03
2022-08-28T17:29:01.546Z,4.30
2022-08-28T17:31:28.740Z,4.80
2022-08-28T17:33:55.918Z,4.55
2022-08-28T17:36:33.194Z,4.38
2022-08-28T17:39:08.652Z,4.80
2022-08-28T17:41:36.434Z,4.97
2022-08-28T17:44:05.064Z,4.50
2022-08-28T17:46:37.525Z,4.70
2022-08-28T17:49:06.641Z,4.05
2022-08-28T17:51:42.643Z,4.57
2022-08-28T17:54:18.583Z,4.43
2022-08-28T17:56:46.410Z,4.60
2022-08-28T17:59:14.581Z,4.70
2022-08-28T18:01:42.926Z,4.70
2022-08-28T18:04:10.830Z,4.32
2022-08-28T18:06:38.018Z,4.57
2022-08-28T18:09:06.005Z,4.95
2022-08-28T18:11:32.921Z,4.97
2022-08-28T18:13:59.862Z,4.40
2022-08-28T18:16:31.197Z,4.80
2022-08-28T18:19:00.128Z,5.40
2022-08-28T18:21:27.658Z,5.30
2022-08-28T18:23:54.658Z,4.90
2022-08-28T18:26:21.606Z,4.57
2022-08-28T18:28:49.026Z,4.60
2022-08-28T18:31:16.045Z,5.10
2022-08-28T18:33:43.054Z,4.70
2022-08-28T18:36:12.610Z,4.90
2022-08-28T18:38:40.869Z,4.85
2022-08-28T18:41:08.893Z,4.60
2022-08-28T18:43:36.629Z,4.60
2022-08-28T18:46:04.831Z,4.97
2022-08-28T18:48:32.442Z,4.88
2022-08-28T18:50:59.477Z,5.15
2022-08-28T18:53:26.575Z,4.87
2022-08-28T18:55:55.076Z,4.90
2022-08-28T18:58:22.856Z,4.90
2022-08-28T19:00:49.929Z,4.63
2022-08-28T19:03:17.468Z,4.68
2022-08-28T19:05:44.380Z,4.80
2022-08-28T19:08:11.535Z,4.93
2022-08-28T19:10:38.598Z,4.60
2022-08-28T19:13:06.428Z,4.88
2022-08-28T19:15:35.674Z,5.55
2022-08-28T19:18:03.465Z,4.97
2022-08-28T19:20:31.062Z,5.40
2022-08-28T19:22:58.829Z,5.20
2022-08-28T19:25:29.228Z,5.25
2022-08-28T19:28:01.477Z,5.10
2022-08-28T19:30:32.916Z,5.47
2022-08-28T19:33:01.121Z,4.35
2022-08-28T19:35:28.296Z,4.30
2022-08-28T19:37:55.677Z,4.70
2022-08-28T19:40:23.683Z,4.22
2022-08-28T19:42:51.382Z,3.90
2022-08-28T19:45:18.786Z,4.00
2022-08-28T19:47:47.084Z,4.10
2022-08-28T19:50:15.382Z,4.10
2022-08-28T19:52:44.705Z,4.20
2022-08-28T19:55:29.886Z,4.30
2022-08-28T19:57:57.533Z,4.50
2022-08-28T20:00:29.983Z,4.57
2022-08-28T20:02:57.783Z,4.40
2022-08-28T20:05:24.975Z,4.47
2022-08-28T20:07:52.373Z,4.50
2022-08-28T20:10:19.745Z,4.50
2022-08-28T20:12:48.076Z,4.80
2022-08-28T20:15:17.101Z,4.40
2022-08-28T20:17:49.887Z,4.40
2022-08-28T20:20:20.094Z,3.90
2022-08-28T20:22:47.279Z,4.07
2022-08-28T20:25:15.573Z,4.60
2022-08-28T20:27:42.588Z,4.20
2022-08-28T20:30:11.083Z,4.30
2022-08-28T20:32:40.465Z,4.20
2022-08-28T20:35:10.334Z,4.38
2022-08-28T20:37:44.958Z,4.22
2022-08-28T20:40:15.940Z,4.10
2022-08-28T20:42:43.758Z,4.63
2022-08-28T20:45:11.889Z,4.00
2022-08-28T20:47:38.893Z,4.35
2022-08-28T20:50:06.954Z,4.38
2022-08-28T20:52:33.883Z,4.35
2022-08-28T20:55:00.788Z,4.60
2022-08-28T20:57:27.751Z,4.50
2022-08-28T20:59:54.662Z,4.60
2022-08-28T21:02:24.578Z,4.00
2022-08-28T21:04:53.361Z,4.40
2022-08-28T21:07:22.376Z,4.30
2022-08-28T21:10:07.023Z,4.20
2022-08-28T21:12:36.748Z,4.32
2022-08-28T21:15:05.868Z,4.30
2022-08-28T21:17:32.749Z,4.00
2022-08-28T21:20:03.194Z,4.25
2022-08-28T21:22:32.044Z,4.15
2022-08-28T21:25:00.045Z,4.25
2022-08-28T21:27:27.327Z,4.20
2022-08-28T21:29:58.695Z,4.32
2022-08-28T21:32:26.984Z,4.30
2022-08-28T21:34:55.057Z,4.20
2022-08-28T21:37:22.208Z,4.38
2022-08-28T21:39:49.117Z,4.30
2022-08-28T21:42:16.169Z,4.20
2022-08-28T21:44:48.308Z,3.90
2022-08-28T21:47:19.247Z,4.10
2022-08-28T21:49:49.516Z,4.68
2022-08-28T21:52:18.309Z,4.10
2022-08-28T21:54:45.257Z,4.10
2022-08-28T21:57:12.173Z,4.38
2022-08-28T21:59:39.110Z,4.40
2022-08-28T22:02:06.741Z,4.27
2022-08-28T22:04:34.868Z,4.97
2022-08-28T22:07:02.109Z,4.90
2022-08-28T22:09:29.114Z,4.30
2022-08-28T22:11:56.012Z,4.40
2022-08-28T22:14:25.109Z,4.30
2022-08-28T22:16:52.333Z,4.35
2022-08-28T22:19:19.343Z,4.38
2022-08-28T22:22:04.651Z,4.78
2022-08-28T22:24:31.556Z,4.60
2022-08-28T22:26:58.613Z,4.47
2022-08-28T22:29:25.887Z,4.20
2022-08-28T22:31:52.897Z,4.68
2022-08-28T22:34:20.191Z,4.20
2022-08-28T22:36:47.174Z,4.30
2022-08-28T22:39:14.230Z,4.10
2022-08-28T22:41:42.039Z,4.17
2022-08-28T22:44:09.931Z,4.30
2022-08-28T22:46:36.890Z,4.50
2022-08-28T22:49:04.502Z,4.50
2022-08-28T22:51:34.359Z,5.05
2022-08-28T22:54:01.855Z,4.40
2022-08-28T22:56:28.893Z,4.60
2022-08-28T22:58:55.867Z,4.93
2022-08-28T23:01:26.426Z,3.90
2022-08-28T23:03:53.505Z,4.30
2022-08-28T23:06:21.599Z,4.37
2022-08-28T23:08:48.761Z,4.07
2022-08-28T23:11:15.877Z,4.30
2022-08-28T23:13:42.834Z,4.50
2022-08-28T23:16:11.236Z,4.72
2022-08-28T23:19:06.013Z,4.50
2022-08-28T23:21:28.381Z,4.15
2022-08-28T23:23:56.231Z,4.32
2022-08-28T23:26:24.782Z,4.90
2022-08-28T23:28:52.562Z,4.80
2022-08-28T23:31:19.696Z,4.32
2022-08-28T23:33:48.581Z,4.40
2022-08-28T23:36:15.887Z,4.25
2022-08-28T23:38:45.372Z,4.47
2022-08-28T23:41:12.643Z,4.50
2022-08-28T23:43:40.425Z,4.30
2022-08-28T23:46:09.349Z,4.90
2022-08-28T23:48:40.990Z,4.20
2022-08-28T23:51:12.431Z,4.68
2022-08-28T23:53:40.897Z,4.32
2022-08-28T23:56:08.325Z,4.23
2022-08-28T23:58:35.728Z,4.40
